createdAt,value
2018-09-18T00:00:29.481Z,9.83
2018-09-18T00:05:33.057Z,13.23
2018-09-18T00:10:36.767Z,10.97
2018-09-18T00:15:40.389Z,10.43
2018-09-18T00:20:44.575Z,9.87
2018-09-18T00:25:48.179Z,13.90
2018-09-18T00:30:51.762Z,9.90
2018-09-18T00:35:55.508Z,9.80
2018-09-18T00:40:59.099Z,10.90
2018-09-18T00:46:03.189Z,9.50
2018-09-18T00:51:07.202Z,11.40
2018-09-18T00:56:12.444Z,10.87
2018-09-18T01:01:16.031Z,11.17
2018-09-18T01:06:20.530Z,11.07
2018-09-18T01:11:24.484Z,9.50
2018-09-18T01:16:28.140Z,9.93
2018-09-18T01:21:31.717Z,9.60
2018-09-18T01:26:35.399Z,10.70
2018-09-18T01:31:38.972Z,10.47
2018-09-18T01:36:42.545Z,11.60
2018-09-18T01:41:46.435Z,14.30
2018-09-18T01:46:50.002Z,10.10
2018-09-18T01:51:53.589Z,14.83
2018-09-18T01:56:57.952Z,11.43
2018-09-18T02:02:01.744Z,11.20
2018-09-18T02:07:05.549Z,10.90
2018-09-18T02:12:09.112Z,12.83
2018-09-18T02:17:14.376Z,12.40
2018-09-18T02:22:26.526Z,11.30
2018-09-18T02:27:30.208Z,16.03
2018-09-18T02:32:33.741Z,12.90
2018-09-18T02:37:37.323Z,11.63
2018-09-18T02:42:40.956Z,10.77
2018-09-18T02:47:44.548Z,20.80
2018-09-18T02:52:48.111Z,13.00
2018-09-18T02:57:51.824Z,13.23
2018-09-18T03:02:55.377Z,12.83
2018-09-18T03:08:01.593Z,13.07
2018-09-18T03:13:05.144Z,12.50
2018-09-18T03:18:09.324Z,11.53
2018-09-18T03:23:12.978Z,15.60
2018-09-18T03:28:16.626Z,11.83
2018-09-18T03:33:20.391Z,11.90
2018-09-18T03:38:24.328Z,17.23
2018-09-18T03:43:28.317Z,12.70
2018-09-18T03:48:31.860Z,12.67
2018-09-18T03:53:35.458Z,10.53
2018-09-18T03:58:39.434Z,13.07
2018-09-18T04:03:43.021Z,12.20
2018-09-18T04:08:46.612Z,12.30
2018-09-18T04:13:50.155Z,12.93
2018-09-18T04:18:54.360Z,13.43
2018-09-18T04:23:58.372Z,15.30
2018-09-18T04:29:08.675Z,16.93
2018-09-18T04:34:14.244Z,11.40
2018-09-18T04:39:18.570Z,11.53
2018-09-18T04:44:22.150Z,13.97
2018-09-18T04:49:25.745Z,15.30
2018-09-18T04:54:29.299Z,13.87
2018-09-18T04:59:33.581Z,12.60
2018-09-18T05:04:37.248Z,12.50
2018-09-18T05:09:41.042Z,15.77
2018-09-18T05:14:44.977Z,11.37
2018-09-18T05:19:48.519Z,12.50
2018-09-18T05:24:52.106Z,18.10
2018-09-18T05:29:56.123Z,14.30
2018-09-18T05:34:59.714Z,16.00
2018-09-18T05:40:06.539Z,15.27
2018-09-18T05:45:10.804Z,17.63
2018-09-18T05:50:14.805Z,13.13
2018-09-18T05:55:18.504Z,14.40
2018-09-18T06:00:22.172Z,14.30
2018-09-18T06:05:25.768Z,14.43
2018-09-18T06:10:29.336Z,20.03
2018-09-18T06:15:32.936Z,15.10
2018-09-18T06:20:39.744Z,14.43
2018-09-18T06:25:43.429Z,16.90
2018-09-18T06:30:47.015Z,21.93
2018-09-18T06:35:51.973Z,18.97
2018-09-18T06:40:55.658Z,16.80
2018-09-18T06:45:59.289Z,22.20
2018-09-18T06:51:02.917Z,17.50
2018-09-18T06:56:06.675Z,18.10
2018-09-18T07:01:10.276Z,16.50
2018-09-18T07:06:15.740Z,22.73
2018-09-18T07:11:19.324Z,17.90
2018-09-18T07:16:23.613Z,20.33
2018-09-18T07:21:27.168Z,19.30
2018-09-18T07:26:34.601Z,14.50
2018-09-18T07:31:44.002Z,16.30
2018-09-18T07:36:47.766Z,17.90
2018-09-18T07:41:52.029Z,17.60
2018-09-18T07:46:58.612Z,16.70
2018-09-18T07:52:04.112Z,16.67
2018-09-18T07:57:07.763Z,19.03
2018-09-18T08:02:11.463Z,18.03
2018-09-18T08:07:15.145Z,21.40
2018-09-18T08:12:18.796Z,18.90
2018-09-18T08:17:22.404Z,24.33
2018-09-18T08:22:26.816Z,19.67
2018-09-18T08:27:31.100Z,22.00
2018-09-18T08:32:38.841Z,21.77
2018-09-18T08:37:42.695Z,22.87
2018-09-18T08:42:46.555Z,19.23
2018-09-18T08:47:50.173Z,14.20
2018-09-18T08:52:54.173Z,14.67
2018-09-18T08:58:00.040Z,13.70
2018-09-18T09:03:03.790Z,15.13
2018-09-18T09:08:07.499Z,15.03
2018-09-18T09:13:11.114Z,11.90
2018-09-18T09:18:14.754Z,14.17
2018-09-18T09:23:18.269Z,16.50
2018-09-18T09:28:24.841Z,24.57
2018-09-18T09:33:29.353Z,16.00
2018-09-18T09:38:35.706Z,14.47
2018-09-18T09:43:39.365Z,15.27
2018-09-18T09:48:43.880Z,13.50
2018-09-18T09:53:47.456Z,17.43
2018-09-18T09:58:51.635Z,15.20
2018-09-18T10:04:01.272Z,15.67
2018-09-18T10:09:08.074Z,17.17
2018-09-18T10:14:11.744Z,14.63
2018-09-18T10:19:15.325Z,19.90
2018-09-18T10:24:19.785Z,16.83
2018-09-18T10:29:23.575Z,13.43
2018-09-18T10:34:27.169Z,15.37
2018-09-18T10:39:31.419Z,17.80
2018-09-18T10:44:34.974Z,15.87
2018-09-18T10:49:38.733Z,12.50
2018-09-18T10:54:42.324Z,20.37
2018-09-18T10:59:45.913Z,15.00
2018-09-18T11:04:49.502Z,17.73
2018-09-18T11:09:53.117Z,21.60
2018-09-18T11:14:58.292Z,19.40
2018-09-18T11:20:01.928Z,16.87
2018-09-18T11:25:06.004Z,14.27
2018-09-18T11:30:10.112Z,15.73
2018-09-18T11:35:13.814Z,18.20
2018-09-18T11:40:19.211Z,23.63
2018-09-18T11:45:23.436Z,18.80
2018-09-18T11:50:27.260Z,23.83
2018-09-18T11:55:30.978Z,15.13
2018-09-18T12:00:34.682Z,14.17
2018-09-18T12:05:37.995Z,13.77
2018-09-18T12:10:42.228Z,16.50
2018-09-18T12:15:45.555Z,12.93
2018-09-18T12:20:49.132Z,15.10
2018-09-18T12:25:52.731Z,13.43
2018-09-18T12:30:56.061Z,15.60
2018-09-18T12:35:59.932Z,16.80
2018-09-18T12:41:03.554Z,14.17
2018-09-18T12:46:07.465Z,20.60
2018-09-18T12:51:11.668Z,16.67
2018-09-18T12:56:15.075Z,13.40
2018-09-18T13:01:18.730Z,13.97
2018-09-18T13:06:22.740Z,18.30
2018-09-18T13:11:26.634Z,17.00
2018-09-18T13:16:30.208Z,15.57
2018-09-18T13:21:33.832Z,19.20
2018-09-18T13:26:37.696Z,24.00
2018-09-18T13:31:41.277Z,16.23
2018-09-18T13:36:44.872Z,19.23
2018-09-18T13:41:49.083Z,16.67
2018-09-18T13:46:52.661Z,17.00
2018-09-18T13:51:56.312Z,14.37
2018-09-18T13:56:59.972Z,16.43
2018-09-18T14:02:03.226Z,12.20
2018-09-18T14:07:07.652Z,14.87
2018-09-18T14:12:11.745Z,14.70
2018-09-18T14:17:15.627Z,16.40
2018-09-18T14:22:18.993Z,14.73
2018-09-18T14:27:22.624Z,14.33
2018-09-18T14:32:26.688Z,12.67
2018-09-18T14:37:30.271Z,17.70
2018-09-18T14:42:34.197Z,12.70
2018-09-18T14:47:37.852Z,17.53
2018-09-18T14:52:41.455Z,14.17
2018-09-18T14:57:45.009Z,12.60
2018-09-18T15:02:48.534Z,11.83
2018-09-18T15:07:52.180Z,12.77
2018-09-18T15:12:55.895Z,10.17
2018-09-18T15:18:00.188Z,11.90
2018-09-18T15:23:03.959Z,11.87
2018-09-18T15:28:10.270Z,10.30
2018-09-18T15:33:13.868Z,12.97
2018-09-18T15:38:18.101Z,12.80
2018-09-18T15:43:21.984Z,14.00
2018-09-18T15:48:26.428Z,21.27
2018-09-18T15:53:30.208Z,12.80
2018-09-18T15:58:33.894Z,11.70
2018-09-18T16:03:37.444Z,13.43
2018-09-18T16:08:41.050Z,14.40
2018-09-18T16:13:44.739Z,11.13
2018-09-18T16:18:48.303Z,13.83
2018-09-18T16:23:52.012Z,12.67
2018-09-18T16:28:55.603Z,14.03
2018-09-18T16:33:59.229Z,13.57
2018-09-18T16:39:02.947Z,14.07
2018-09-18T16:44:06.877Z,13.27
2018-09-18T16:49:10.480Z,15.00
2018-09-18T16:54:14.238Z,13.00
2018-09-18T16:59:17.817Z,14.77
2018-09-18T17:04:21.814Z,11.33
2018-09-18T17:09:25.435Z,14.87
2018-09-18T17:14:30.506Z,14.47
2018-09-18T17:19:34.616Z,14.50
2018-09-18T17:24:38.284Z,14.57
2018-09-18T17:29:42.055Z,13.27
2018-09-18T17:34:46.381Z,18.57
2018-09-18T17:39:51.059Z,12.83
2018-09-18T17:44:54.834Z,15.93
2018-09-18T17:49:59.796Z,13.43
2018-09-18T17:55:04.152Z,14.67
2018-09-18T18:00:07.836Z,15.07
2018-09-18T18:05:11.481Z,15.27
2018-09-18T18:10:15.511Z,14.53
2018-09-18T18:15:19.159Z,14.17
2018-09-18T18:20:22.848Z,11.87
2018-09-18T18:25:26.599Z,16.50
2018-09-18T18:30:32.259Z,11.47
2018-09-18T18:35:36.086Z,12.70
2018-09-18T18:40:39.682Z,16.83
2018-09-18T18:45:43.589Z,13.80
2018-09-18T18:50:47.519Z,14.00
2018-09-18T18:55:51.244Z,13.27
2018-09-18T19:00:56.242Z,13.10
2018-09-18T19:06:00.122Z,15.10
2018-09-18T19:11:03.701Z,16.43
2018-09-18T19:16:07.511Z,13.63
2018-09-18T19:21:11.121Z,12.13
2018-09-18T19:26:15.219Z,13.30
2018-09-18T19:31:18.749Z,17.90
2018-09-18T19:36:23.066Z,13.40
2018-09-18T19:41:26.958Z,15.30
2018-09-18T19:46:30.579Z,28.70
2018-09-18T19:51:34.215Z,13.63
2018-09-18T19:56:38.190Z,13.10
2018-09-18T20:01:41.780Z,12.40
2018-09-18T20:06:46.127Z,17.57
2018-09-18T20:11:49.732Z,14.00
2018-09-18T20:16:53.293Z,13.10
2018-09-18T20:21:56.904Z,16.83
2018-09-18T20:27:00.602Z,17.17
2018-09-18T20:32:04.980Z,17.73
2018-09-18T20:37:08.574Z,22.90
2018-09-18T20:42:12.150Z,9.07
2018-09-18T20:47:16.115Z,12.20
2018-09-18T20:52:20.052Z,7.80
2018-09-18T20:57:25.587Z,6.33
2018-09-18T21:02:29.157Z,9.00
2018-09-18T21:07:32.780Z,9.17
2018-09-18T21:12:36.474Z,10.30
2018-09-18T21:17:40.172Z,10.43
2018-09-18T21:22:43.792Z,8.40
2018-09-18T21:27:48.278Z,8.83
2018-09-18T21:32:52.364Z,7.10
2018-09-18T21:37:56.852Z,8.43
2018-09-18T21:43:00.474Z,6.17
2018-09-18T21:48:04.139Z,13.17
2018-09-18T21:53:10.333Z,5.43
2018-09-18T21:58:13.599Z,6.57
2018-09-18T22:03:16.864Z,12.47
2018-09-18T22:08:21.143Z,8.77
2018-09-18T22:13:25.242Z,6.90
2018-09-18T22:18:29.304Z,6.17
2018-09-18T22:23:32.896Z,5.90
2018-09-18T22:28:36.471Z,5.83
2018-09-18T22:33:39.799Z,6.07
2018-09-18T22:38:47.255Z,5.20
2018-09-18T22:43:50.801Z,5.10
2018-09-18T22:48:54.339Z,5.37
2018-09-18T22:53:57.963Z,6.53
2018-09-18T22:59:01.588Z,7.80
2018-09-18T23:04:05.203Z,7.23
2018-09-18T23:09:09.487Z,8.97
2018-09-18T23:14:13.655Z,6.23
2018-09-18T23:19:17.211Z,5.43
2018-09-18T23:24:20.786Z,7.40
2018-09-18T23:29:25.071Z,5.40
2018-09-18T23:34:28.649Z,6.20
2018-09-18T23:39:32.212Z,8.23
2018-09-18T23:44:35.927Z,7.90
2018-09-18T23:49:39.484Z,7.00
2018-09-18T23:54:43.900Z,5.20
2018-09-18T23:59:47.785Z,5.87
